Terminal Aerodrome Forecast
Issued by NWS Greer, SC

Current Version | Previous Version | Text Only | Print | Product List | Glossary On
Versions: 1 2 3 4 5 6 7 8 9 10 11 12 13 14 15 16 17 18 19 20
000
FTUS42 KGSP 170500
TAFAVL
TAF
KAVL 170531Z 1706/1806 00000KT P6SM SCT250
     FM171500 16008KT P6SM BKN250
     FM171900 15012G21KT P6SM BKN250
     FM180000 17008KT P6SM BKN250
     FM180200 35005KT P6SM BKN250=

USA.gov is the U.S. government's official web portal to all federal, state and local government web resources and services.